sensor_id;sensor_type;location;lat;lon;timestamp;temperature;humidity
28189;DHT22;15471;51.166;4.470;2022-12-29T00:01:36;10.50;99.90
28189;DHT22;15471;51.166;4.470;2022-12-29T00:04:03;10.50;99.90
28189;DHT22;15471;51.166;4.470;2022-12-29T00:06:31;10.60;99.90
28189;DHT22;15471;51.166;4.470;2022-12-29T00:08:57;10.60;99.90
28189;DHT22;15471;51.166;4.470;2022-12-29T00:11:25;10.60;99.90
28189;DHT22;15471;51.166;4.470;2022-12-29T00:13:54;10.70;99.90
28189;DHT22;15471;51.166;4.470;2022-12-29T00:16:41;10.70;99.90
28189;DHT22;15471;51.166;4.470;2022-12-29T00:19:08;10.70;99.90
28189;DHT22;15471;51.166;4.470;2022-12-29T00:21:54;10.70;99.90
28189;DHT22;15471;51.166;4.470;2022-12-29T00:24:39;10.70;99.90
28189;DHT22;15471;51.166;4.470;2022-12-29T00:27:20;10.60;99.90
28189;DHT22;15471;51.166;4.470;2022-12-29T00:30:09;10.60;99.90
28189;DHT22;15471;51.166;4.470;2022-12-29T00:32:54;10.70;99.90
28189;DHT22;15471;51.166;4.470;2022-12-29T00:36:02;10.70;99.90
28189;DHT22;15471;51.166;4.470;2022-12-29T00:38:29;10.70;99.90
28189;DHT22;15471;51.166;4.470;2022-12-29T00:41:15;10.70;99.90
28189;DHT22;15471;51.166;4.470;2022-12-29T00:44:00;10.70;99.90
28189;DHT22;15471;51.166;4.470;2022-12-29T00:46:33;10.70;99.90
28189;DHT22;15471;51.166;4.470;2022-12-29T00:49:00;10.70;99.90
28189;DHT22;15471;51.166;4.470;2022-12-29T00:51:46;10.80;99.90
28189;DHT22;15471;51.166;4.470;2022-12-29T00:54:12;10.80;99.90
28189;DHT22;15471;51.166;4.470;2022-12-29T00:56:38;10.80;99.90
28189;DHT22;15471;51.166;4.470;2022-12-29T00:59:06;10.80;99.90
28189;DHT22;15471;51.166;4.470;2022-12-29T01:01:32;10.90;99.90
28189;DHT22;15471;51.166;4.470;2022-12-29T01:03:58;10.90;99.90
28189;DHT22;15471;51.166;4.470;2022-12-29T01:06:24;10.90;99.90
28189;DHT22;15471;51.166;4.470;2022-12-29T01:08:51;11.00;99.90
28189;DHT22;15471;51.166;4.470;2022-12-29T01:11:37;11.00;99.90
28189;DHT22;15471;51.166;4.470;2022-12-29T01:14:04;11.00;99.90
28189;DHT22;15471;51.166;4.470;2022-12-29T01:16:30;11.00;99.90
28189;DHT22;15471;51.166;4.470;2022-12-29T01:18:56;11.00;99.90
28189;DHT22;15471;51.166;4.470;2022-12-29T01:21:22;11.00;99.90
28189;DHT22;15471;51.166;4.470;2022-12-29T01:23:50;10.90;99.90
28189;DHT22;15471;51.166;4.470;2022-12-29T01:26:17;10.90;99.90
28189;DHT22;15471;51.166;4.470;2022-12-29T01:28:43;11.00;99.90
28189;DHT22;15471;51.166;4.470;2022-12-29T01:31:10;11.00;99.90
28189;DHT22;15471;51.166;4.470;2022-12-29T01:33:37;11.00;99.90
28189;DHT22;15471;51.166;4.470;2022-12-29T01:36:08;11.00;99.90
28189;DHT22;15471;51.166;4.470;2022-12-29T01:38:35;11.00;99.90
28189;DHT22;15471;51.166;4.470;2022-12-29T01:41:02;11.00;99.90
28189;DHT22;15471;51.166;4.470;2022-12-29T01:43:49;11.00;99.90
28189;DHT22;15471;51.166;4.470;2022-12-29T01:46:38;11.20;99.90
28189;DHT22;15471;51.166;4.470;2022-12-29T01:51:45;11.10;99.90
28189;DHT22;15471;51.166;4.470;2022-12-29T01:57:07;11.10;99.90
28189;DHT22;15471;51.166;4.470;2022-12-29T01:59:38;11.00;99.90
28189;DHT22;15471;51.166;4.470;2022-12-29T02:02:10;10.90;99.90
28189;DHT22;15471;51.166;4.470;2022-12-29T02:04:41;10.80;99.90
28189;DHT22;15471;51.166;4.470;2022-12-29T02:07:18;10.80;99.90
28189;DHT22;15471;51.166;4.470;2022-12-29T02:09:50;10.70;99.90
28189;DHT22;15471;51.166;4.470;2022-12-29T02:12:19;10.70;99.90
28189;DHT22;15471;51.166;4.470;2022-12-29T02:14:46;10.60;99.90
28189;DHT22;15471;51.166;4.470;2022-12-29T02:33:24;10.60;99.90
28189;DHT22;15471;51.166;4.470;2022-12-29T02:36:50;10.60;99.90
28189;DHT22;15471;51.166;4.470;2022-12-29T02:42:46;10.60;99.90
28189;DHT22;15471;51.166;4.470;2022-12-29T02:45:26;10.60;99.90
28189;DHT22;15471;51.166;4.470;2022-12-29T02:51:00;10.70;99.90
28189;DHT22;15471;51.166;4.470;2022-12-29T02:53:29;10.60;99.90
28189;DHT22;15471;51.166;4.470;2022-12-29T02:56:15;10.50;99.90
28189;DHT22;15471;51.166;4.470;2022-12-29T02:58:41;10.50;99.90
28189;DHT22;15471;51.166;4.470;2022-12-29T03:04:18;10.50;99.90
28189;DHT22;15471;51.166;4.470;2022-12-29T03:07:15;10.50;99.90
28189;DHT22;15471;51.166;4.470;2022-12-29T03:12:48;10.40;99.90
28189;DHT22;15471;51.166;4.470;2022-12-29T03:15:42;10.40;99.90
28189;DHT22;15471;51.166;4.470;2022-12-29T03:21:11;10.40;99.90
28189;DHT22;15471;51.166;4.470;2022-12-29T03:23:39;10.40;99.90
28189;DHT22;15471;51.166;4.470;2022-12-29T03:26:10;10.40;99.90
28189;DHT22;15471;51.166;4.470;2022-12-29T03:28:50;10.50;99.90
28189;DHT22;15471;51.166;4.470;2022-12-29T03:31:23;10.40;99.90
28189;DHT22;15471;51.166;4.470;2022-12-29T03:33:50;10.40;99.90
28189;DHT22;15471;51.166;4.470;2022-12-29T03:36:27;10.40;99.90
28189;DHT22;15471;51.166;4.470;2022-12-29T03:39:16;10.40;99.90
28189;DHT22;15471;51.166;4.470;2022-12-29T03:41:45;10.40;99.90
28189;DHT22;15471;51.166;4.470;2022-12-29T03:44:13;10.40;99.90
28189;DHT22;15471;51.166;4.470;2022-12-29T03:46:39;10.40;99.90
28189;DHT22;15471;51.166;4.470;2022-12-29T03:49:05;10.40;99.90
28189;DHT22;15471;51.166;4.470;2022-12-29T03:51:31;10.50;99.90
28189;DHT22;15471;51.166;4.470;2022-12-29T03:53:56;10.40;99.90
28189;DHT22;15471;51.166;4.470;2022-12-29T03:56:22;10.40;99.90
28189;DHT22;15471;51.166;4.470;2022-12-29T03:58:51;10.40;99.90
28189;DHT22;15471;51.166;4.470;2022-12-29T04:01:28;10.30;99.90
28189;DHT22;15471;51.166;4.470;2022-12-29T04:03:54;10.30;99.90
28189;DHT22;15471;51.166;4.470;2022-12-29T04:06:20;10.20;99.90
28189;DHT22;15471;51.166;4.470;2022-12-29T04:08:53;10.20;99.90
28189;DHT22;15471;51.166;4.470;2022-12-29T04:11:20;10.20;99.90
28189;DHT22;15471;51.166;4.470;2022-12-29T04:13:46;10.10;99.90
28189;DHT22;15471;51.166;4.470;2022-12-29T04:16:15;10.10;99.90
28189;DHT22;15471;51.166;4.470;2022-12-29T04:18:41;10.00;99.90
28189;DHT22;15471;51.166;4.470;2022-12-29T04:21:07;10.00;99.90
28189;DHT22;15471;51.166;4.470;2022-12-29T04:23:36;10.00;99.90
28189;DHT22;15471;51.166;4.470;2022-12-29T04:26:07;10.00;99.90
28189;DHT22;15471;51.166;4.470;2022-12-29T04:28:36;9.90;99.90
28189;DHT22;15471;51.166;4.470;2022-12-29T04:31:24;9.80;99.90
28189;DHT22;15471;51.166;4.470;2022-12-29T04:33:54;9.80;99.90
28189;DHT22;15471;51.166;4.470;2022-12-29T04:36:26;9.80;99.90
28189;DHT22;15471;51.166;4.470;2022-12-29T04:38:55;9.90;99.90
28189;DHT22;15471;51.166;4.470;2022-12-29T04:41:21;10.00;99.90
28189;DHT22;15471;51.166;4.470;2022-12-29T04:43:47;10.10;99.90
28189;DHT22;15471;51.166;4.470;2022-12-29T04:46:33;10.10;99.90
28189;DHT22;15471;51.166;4.470;2022-12-29T04:49:03;10.10;99.90
28189;DHT22;15471;51.166;4.470;2022-12-29T04:51:54;10.10;99.90
28189;DHT22;15471;51.166;4.470;2022-12-29T04:54:20;10.20;99.90
28189;DHT22;15471;51.166;4.470;2022-12-29T04:57:11;10.30;99.90
28189;DHT22;15471;51.166;4.470;2022-12-29T04:59:38;10.30;99.90
28189;DHT22;15471;51.166;4.470;2022-12-29T05:02:04;10.40;99.90
28189;DHT22;15471;51.166;4.470;2022-12-29T05:04:32;10.20;99.90
28189;DHT22;15471;51.166;4.470;2022-12-29T05:06:58;10.20;99.90
28189;DHT22;15471;51.166;4.470;2022-12-29T05:09:24;10.30;99.90
28189;DHT22;15471;51.166;4.470;2022-12-29T05:11:50;10.30;99.90
28189;DHT22;15471;51.166;4.470;2022-12-29T05:14:16;10.20;99.90
28189;DHT22;15471;51.166;4.470;2022-12-29T05:16:42;10.30;99.90
28189;DHT22;15471;51.166;4.470;2022-12-29T05:19:09;10.20;99.90
28189;DHT22;15471;51.166;4.470;2022-12-29T05:21:35;10.30;99.90
28189;DHT22;15471;51.166;4.470;2022-12-29T05:24:01;10.20;99.90
28189;DHT22;15471;51.166;4.470;2022-12-29T05:26:27;10.20;99.90
28189;DHT22;15471;51.166;4.470;2022-12-29T05:29:07;10.20;99.90
28189;DHT22;15471;51.166;4.470;2022-12-29T05:31:33;10.10;99.90
28189;DHT22;15471;51.166;4.470;2022-12-29T05:34:02;10.00;99.90
28189;DHT22;15471;51.166;4.470;2022-12-29T05:36:28;10.00;99.90
28189;DHT22;15471;51.166;4.470;2022-12-29T05:38:57;10.10;99.90
28189;DHT22;15471;51.166;4.470;2022-12-29T05:41:23;10.10;99.90
28189;DHT22;15471;51.166;4.470;2022-12-29T05:44:18;10.10;99.90
28189;DHT22;15471;51.166;4.470;2022-12-29T05:47:02;10.20;99.90
28189;DHT22;15471;51.166;4.470;2022-12-29T05:49:40;10.20;99.90
28189;DHT22;15471;51.166;4.470;2022-12-29T05:52:29;10.20;99.90
28189;DHT22;15471;51.166;4.470;2022-12-29T05:54:55;10.20;99.90
28189;DHT22;15471;51.166;4.470;2022-12-29T05:57:22;10.40;99.90
28189;DHT22;15471;51.166;4.470;2022-12-29T05:59:57;10.40;99.90
28189;DHT22;15471;51.166;4.470;2022-12-29T06:02:23;10.30;99.90
28189;DHT22;15471;51.166;4.470;2022-12-29T06:04:49;10.30;99.90
28189;DHT22;15471;51.166;4.470;2022-12-29T06:07:14;10.20;99.90
28189;DHT22;15471;51.166;4.470;2022-12-29T06:09:43;10.20;99.90
28189;DHT22;15471;51.166;4.470;2022-12-29T06:12:09;10.10;99.90
28189;DHT22;15471;51.166;4.470;2022-12-29T06:14:37;10.20;99.90
28189;DHT22;15471;51.166;4.470;2022-12-29T06:17:04;10.30;99.90
28189;DHT22;15471;51.166;4.470;2022-12-29T06:19:29;10.30;99.90
28189;DHT22;15471;51.166;4.470;2022-12-29T06:21:55;10.30;99.90
28189;DHT22;15471;51.166;4.470;2022-12-29T06:24:21;10.30;99.90
28189;DHT22;15471;51.166;4.470;2022-12-29T06:26:48;10.30;99.90
28189;DHT22;15471;51.166;4.470;2022-12-29T06:29:14;10.30;99.90
28189;DHT22;15471;51.166;4.470;2022-12-29T06:31:44;10.20;99.90
28189;DHT22;15471;51.166;4.470;2022-12-29T06:34:14;10.30;99.90
28189;DHT22;15471;51.166;4.470;2022-12-29T06:36:40;10.30;99.90
28189;DHT22;15471;51.166;4.470;2022-12-29T06:39:06;10.30;99.90
28189;DHT22;15471;51.166;4.470;2022-12-29T06:41:33;10.40;99.90
28189;DHT22;15471;51.166;4.470;2022-12-29T06:44:22;10.30;99.90
28189;DHT22;15471;51.166;4.470;2022-12-29T06:46:56;10.30;99.90
28189;DHT22;15471;51.166;4.470;2022-12-29T06:49:23;10.30;99.90
28189;DHT22;15471;51.166;4.470;2022-12-29T06:51:49;10.30;99.90
28189;DHT22;15471;51.166;4.470;2022-12-29T06:54:14;10.40;99.90
28189;DHT22;15471;51.166;4.470;2022-12-29T06:56:40;10.30;99.90
28189;DHT22;15471;51.166;4.470;2022-12-29T06:59:06;10.30;99.90
28189;DHT22;15471;51.166;4.470;2022-12-29T07:01:32;10.40;99.90
28189;DHT22;15471;51.166;4.470;2022-12-29T07:03:58;10.30;99.90
28189;DHT22;15471;51.166;4.470;2022-12-29T07:06:24;10.40;99.90
28189;DHT22;15471;51.166;4.470;2022-12-29T07:08:50;10.40;99.90
28189;DHT22;15471;51.166;4.470;2022-12-29T07:11:15;10.40;99.90
28189;DHT22;15471;51.166;4.470;2022-12-29T07:13:41;10.50;99.90
28189;DHT22;15471;51.166;4.470;2022-12-29T07:16:08;10.60;99.90
28189;DHT22;15471;51.166;4.470;2022-12-29T07:18:34;10.60;99.90
28189;DHT22;15471;51.166;4.470;2022-12-29T07:21:00;10.60;99.90
28189;DHT22;15471;51.166;4.470;2022-12-29T07:23:26;10.50;99.90
28189;DHT22;15471;51.166;4.470;2022-12-29T07:26:03;10.40;99.90
28189;DHT22;15471;51.166;4.470;2022-12-29T07:28:30;10.30;99.90
28189;DHT22;15471;51.166;4.470;2022-12-29T07:30:58;10.20;99.90
28189;DHT22;15471;51.166;4.470;2022-12-29T07:33:24;10.00;99.90
28189;DHT22;15471;51.166;4.470;2022-12-29T07:35:50;10.10;99.90
28189;DHT22;15471;51.166;4.470;2022-12-29T07:38:16;10.20;99.90
28189;DHT22;15471;51.166;4.470;2022-12-29T07:40:42;10.20;99.90
28189;DHT22;15471;51.166;4.470;2022-12-29T07:43:08;10.30;99.90
28189;DHT22;15471;51.166;4.470;2022-12-29T07:45:41;10.40;99.90
28189;DHT22;15471;51.166;4.470;2022-12-29T07:48:07;10.50;99.90
28189;DHT22;15471;51.166;4.470;2022-12-29T07:50:35;10.40;99.90
28189;DHT22;15471;51.166;4.470;2022-12-29T07:53:01;10.40;99.90
28189;DHT22;15471;51.166;4.470;2022-12-29T07:55:27;10.50;99.90
28189;DHT22;15471;51.166;4.470;2022-12-29T07:57:54;10.60;99.90
28189;DHT22;15471;51.166;4.470;2022-12-29T08:00:20;10.60;99.90
28189;DHT22;15471;51.166;4.470;2022-12-29T08:02:46;10.50;99.90
28189;DHT22;15471;51.166;4.470;2022-12-29T08:05:12;10.50;99.90
28189;DHT22;15471;51.166;4.470;2022-12-29T08:07:38;10.70;99.90
28189;DHT22;15471;51.166;4.470;2022-12-29T08:10:04;10.70;99.90
28189;DHT22;15471;51.166;4.470;2022-12-29T08:12:30;10.70;99.90
28189;DHT22;15471;51.166;4.470;2022-12-29T08:14:56;10.60;99.90
28189;DHT22;15471;51.166;4.470;2022-12-29T08:17:22;10.60;99.90
28189;DHT22;15471;51.166;4.470;2022-12-29T08:19:48;10.50;99.90
28189;DHT22;15471;51.166;4.470;2022-12-29T08:22:14;10.60;99.90
28189;DHT22;15471;51.166;4.470;2022-12-29T08:24:40;10.70;99.90
28189;DHT22;15471;51.166;4.470;2022-12-29T08:27:06;10.70;99.90
28189;DHT22;15471;51.166;4.470;2022-12-29T08:29:32;10.70;99.90
28189;DHT22;15471;51.166;4.470;2022-12-29T08:31:57;10.70;99.90
28189;DHT22;15471;51.166;4.470;2022-12-29T08:34:23;10.50;99.90
28189;DHT22;15471;51.166;4.470;2022-12-29T08:36:49;10.50;99.90
28189;DHT22;15471;51.166;4.470;2022-12-29T08:39:15;10.50;99.90
28189;DHT22;15471;51.166;4.470;2022-12-29T08:41:41;10.40;99.90
28189;DHT22;15471;51.166;4.470;2022-12-29T08:44:08;10.20;99.90
28189;DHT22;15471;51.166;4.470;2022-12-29T08:46:33;10.10;99.90
28189;DHT22;15471;51.166;4.470;2022-12-29T08:48:59;10.10;99.90
28189;DHT22;15471;51.166;4.470;2022-12-29T08:51:25;9.90;99.90
28189;DHT22;15471;51.166;4.470;2022-12-29T08:53:51;9.90;99.90
28189;DHT22;15471;51.166;4.470;2022-12-29T08:56:17;9.80;99.90
28189;DHT22;15471;51.166;4.470;2022-12-29T08:58:49;9.80;99.90
28189;DHT22;15471;51.166;4.470;2022-12-29T09:01:16;9.80;99.90
28189;DHT22;15471;51.166;4.470;2022-12-29T09:03:42;9.70;99.90
28189;DHT22;15471;51.166;4.470;2022-12-29T09:06:08;9.70;99.90
28189;DHT22;15471;51.166;4.470;2022-12-29T09:08:34;9.70;99.90
28189;DHT22;15471;51.166;4.470;2022-12-29T09:11:20;9.70;99.90
28189;DHT22;15471;51.166;4.470;2022-12-29T09:13:46;9.70;99.90
28189;DHT22;15471;51.166;4.470;2022-12-29T09:16:12;9.70;99.90
28189;DHT22;15471;51.166;4.470;2022-12-29T09:18:39;9.60;99.90
28189;DHT22;15471;51.166;4.470;2022-12-29T09:21:06;9.70;99.90
28189;DHT22;15471;51.166;4.470;2022-12-29T09:23:33;9.70;99.90
28189;DHT22;15471;51.166;4.470;2022-12-29T09:25:59;9.80;99.90
28189;DHT22;15471;51.166;4.470;2022-12-29T09:28:25;9.80;99.90
28189;DHT22;15471;51.166;4.470;2022-12-29T09:30:51;9.80;99.90
28189;DHT22;15471;51.166;4.470;2022-12-29T09:33:17;9.80;99.90
28189;DHT22;15471;51.166;4.470;2022-12-29T09:35:45;9.90;99.90
28189;DHT22;15471;51.166;4.470;2022-12-29T09:38:11;9.80;99.90
28189;DHT22;15471;51.166;4.470;2022-12-29T09:40:38;9.80;99.90
28189;DHT22;15471;51.166;4.470;2022-12-29T09:46:09;10.00;99.90
28189;DHT22;15471;51.166;4.470;2022-12-29T09:48:52;10.00;99.90
28189;DHT22;15471;51.166;4.470;2022-12-29T09:51:23;10.10;99.90
28189;DHT22;15471;51.166;4.470;2022-12-29T09:53:58;10.20;99.90
28189;DHT22;15471;51.166;4.470;2022-12-29T09:56:26;10.30;99.90
28189;DHT22;15471;51.166;4.470;2022-12-29T09:59:04;10.20;99.90
28189;DHT22;15471;51.166;4.470;2022-12-29T10:01:38;10.10;99.90
28189;DHT22;15471;51.166;4.470;2022-12-29T10:04:07;9.90;99.90
28189;DHT22;15471;51.166;4.470;2022-12-29T10:17:53;9.80;99.90
28189;DHT22;15471;51.166;4.470;2022-12-29T10:20:44;9.80;99.90
28189;DHT22;15471;51.166;4.470;2022-12-29T10:23:27;9.90;99.90
28189;DHT22;15471;51.166;4.470;2022-12-29T10:25:56;9.90;99.90
28189;DHT22;15471;51.166;4.470;2022-12-29T10:28:29;9.90;99.90
28189;DHT22;15471;51.166;4.470;2022-12-29T10:30:58;10.00;99.90
28189;DHT22;15471;51.166;4.470;2022-12-29T10:33:35;9.90;99.90
28189;DHT22;15471;51.166;4.470;2022-12-29T10:36:17;9.80;99.90
28189;DHT22;15471;51.166;4.470;2022-12-29T10:39:02;9.80;99.90
28189;DHT22;15471;51.166;4.470;2022-12-29T10:41:49;9.90;99.90
28189;DHT22;15471;51.166;4.470;2022-12-29T10:44:16;9.80;99.90
28189;DHT22;15471;51.166;4.470;2022-12-29T10:46:44;9.70;99.90
28189;DHT22;15471;51.166;4.470;2022-12-29T10:49:17;9.70;99.90
28189;DHT22;15471;51.166;4.470;2022-12-29T10:51:45;9.70;99.90
28189;DHT22;15471;51.166;4.470;2022-12-29T10:54:26;9.90;99.90
28189;DHT22;15471;51.166;4.470;2022-12-29T10:57:41;10.10;99.90
28189;DHT22;15471;51.166;4.470;2022-12-29T11:00:18;10.20;99.90
28189;DHT22;15471;51.166;4.470;2022-12-29T11:08:20;10.40;99.90
28189;DHT22;15471;51.166;4.470;2022-12-29T11:11:00;10.30;99.90
28189;DHT22;15471;51.166;4.470;2022-12-29T11:13:29;10.30;99.90
28189;DHT22;15471;51.166;4.470;2022-12-29T11:15:55;10.40;99.90
28189;DHT22;15471;51.166;4.470;2022-12-29T11:18:24;10.50;99.90
28189;DHT22;15471;51.166;4.470;2022-12-29T11:20:58;10.50;99.90
28189;DHT22;15471;51.166;4.470;2022-12-29T11:23:33;10.60;99.90
28189;DHT22;15471;51.166;4.470;2022-12-29T11:28:32;10.70;99.90
28189;DHT22;15471;51.166;4.470;2022-12-29T11:31:00;10.70;99.90
28189;DHT22;15471;51.166;4.470;2022-12-29T11:33:31;10.70;99.90
28189;DHT22;15471;51.166;4.470;2022-12-29T11:36:03;10.70;99.90
28189;DHT22;15471;51.166;4.470;2022-12-29T11:38:36;10.80;99.90
28189;DHT22;15471;51.166;4.470;2022-12-29T11:41:04;10.90;99.90
28189;DHT22;15471;51.166;4.470;2022-12-29T11:43:34;10.90;99.90
28189;DHT22;15471;51.166;4.470;2022-12-29T11:46:03;11.00;99.90
28189;DHT22;15471;51.166;4.470;2022-12-29T11:48:33;11.10;99.90
28189;DHT22;15471;51.166;4.470;2022-12-29T11:51:03;11.10;99.90
28189;DHT22;15471;51.166;4.470;2022-12-29T11:53:43;11.10;99.90
28189;DHT22;15471;51.166;4.470;2022-12-29T11:56:16;11.20;99.90
28189;DHT22;15471;51.166;4.470;2022-12-29T11:58:42;11.30;99.90
28189;DHT22;15471;51.166;4.470;2022-12-29T12:01:33;11.30;99.90
28189;DHT22;15471;51.166;4.470;2022-12-29T12:04:14;11.10;99.90
28189;DHT22;15471;51.166;4.470;2022-12-29T12:15:16;11.30;99.90
28189;DHT22;15471;51.166;4.470;2022-12-29T12:18:03;11.30;99.90
28189;DHT22;15471;51.166;4.470;2022-12-29T12:20:48;11.40;99.90
28189;DHT22;15471;51.166;4.470;2022-12-29T12:23:22;11.40;99.90
28189;DHT22;15471;51.166;4.470;2022-12-29T12:25:59;11.30;99.90
28189;DHT22;15471;51.166;4.470;2022-12-29T12:28:36;11.20;99.90
28189;DHT22;15471;51.166;4.470;2022-12-29T12:31:06;10.90;99.90
28189;DHT22;15471;51.166;4.470;2022-12-29T12:33:41;10.60;99.90
28189;DHT22;15471;51.166;4.470;2022-12-29T12:39:27;10.30;99.90
28189;DHT22;15471;51.166;4.470;2022-12-29T12:50:55;10.10;99.90
28189;DHT22;15471;51.166;4.470;2022-12-29T12:53:36;9.90;99.90
28189;DHT22;15471;51.166;4.470;2022-12-29T13:01:42;9.60;99.90
28189;DHT22;15471;51.166;4.470;2022-12-29T13:04:38;9.60;99.90
28189;DHT22;15471;51.166;4.470;2022-12-29T13:12:37;9.40;99.90
28189;DHT22;15471;51.166;4.470;2022-12-29T13:15:25;9.40;99.90
28189;DHT22;15471;51.166;4.470;2022-12-29T13:20:57;9.70;99.90
28189;DHT22;15471;51.166;4.470;2022-12-29T13:23:40;9.80;99.90
28189;DHT22;15471;51.166;4.470;2022-12-29T13:26:28;9.90;99.90
28189;DHT22;15471;51.166;4.470;2022-12-29T13:34:28;9.60;99.90
28189;DHT22;15471;51.166;4.470;2022-12-29T13:37:06;9.60;99.90
28189;DHT22;15471;51.166;4.470;2022-12-29T13:39:43;9.60;99.90
28189;DHT22;15471;51.166;4.470;2022-12-29T13:42:11;9.60;99.90
28189;DHT22;15471;51.166;4.470;2022-12-29T13:50:22;9.50;99.90
28189;DHT22;15471;51.166;4.470;2022-12-29T13:55:49;9.40;99.90
28189;DHT22;15471;51.166;4.470;2022-12-29T13:58:31;9.50;99.90
28189;DHT22;15471;51.166;4.470;2022-12-29T14:03:53;9.50;99.90
28189;DHT22;15471;51.166;4.470;2022-12-29T14:06:30;9.50;99.90
28189;DHT22;15471;51.166;4.470;2022-12-29T14:11:44;9.50;99.90
28189;DHT22;15471;51.166;4.470;2022-12-29T14:14:20;9.40;99.90
28189;DHT22;15471;51.166;4.470;2022-12-29T14:16:46;9.30;99.90
28189;DHT22;15471;51.166;4.470;2022-12-29T14:19:16;9.20;99.90
28189;DHT22;15471;51.166;4.470;2022-12-29T14:21:52;9.10;99.90
28189;DHT22;15471;51.166;4.470;2022-12-29T14:34:47;9.30;99.90
28189;DHT22;15471;51.166;4.470;2022-12-29T14:37:40;9.30;99.90
28189;DHT22;15471;51.166;4.470;2022-12-29T14:40:24;9.20;99.90
28189;DHT22;15471;51.166;4.470;2022-12-29T14:42:55;9.20;99.90
28189;DHT22;15471;51.166;4.470;2022-12-29T14:45:29;9.20;99.90
28189;DHT22;15471;51.166;4.470;2022-12-29T14:47:56;9.00;99.90
28189;DHT22;15471;51.166;4.470;2022-12-29T14:50:45;8.90;99.90
28189;DHT22;15471;51.166;4.470;2022-12-29T14:53:46;8.80;99.90
28189;DHT22;15471;51.166;4.470;2022-12-29T14:56:13;8.80;99.90
28189;DHT22;15471;51.166;4.470;2022-12-29T14:58:51;8.80;99.90
28189;DHT22;15471;51.166;4.470;2022-12-29T15:03:58;8.70;99.90
28189;DHT22;15471;51.166;4.470;2022-12-29T15:06:29;8.60;99.90
28189;DHT22;15471;51.166;4.470;2022-12-29T15:11:59;8.70;99.90
28189;DHT22;15471;51.166;4.470;2022-12-29T15:14:52;8.70;99.90
28189;DHT22;15471;51.166;4.470;2022-12-29T15:17:45;8.70;99.90
28189;DHT22;15471;51.166;4.470;2022-12-29T15:20:27;8.70;99.90
28189;DHT22;15471;51.166;4.470;2022-12-29T15:22:57;8.60;99.90
28189;DHT22;15471;51.166;4.470;2022-12-29T15:26:04;8.60;99.90
28189;DHT22;15471;51.166;4.470;2022-12-29T15:28:42;8.50;99.90
28189;DHT22;15471;51.166;4.470;2022-12-29T15:31:12;8.50;99.90
28189;DHT22;15471;51.166;4.470;2022-12-29T15:33:43;8.40;99.90
28189;DHT22;15471;51.166;4.470;2022-12-29T15:38:46;8.20;99.90
28189;DHT22;15471;51.166;4.470;2022-12-29T15:41:17;8.20;99.90
28189;DHT22;15471;51.166;4.470;2022-12-29T15:43:58;8.20;99.90
28189;DHT22;15471;51.166;4.470;2022-12-29T15:46:26;8.30;99.90
28189;DHT22;15471;51.166;4.470;2022-12-29T15:49:00;8.30;99.90
28189;DHT22;15471;51.166;4.470;2022-12-29T15:51:36;8.40;99.90
28189;DHT22;15471;51.166;4.470;2022-12-29T15:54:06;8.50;99.90
28189;DHT22;15471;51.166;4.470;2022-12-29T15:56:46;8.40;99.90
28189;DHT22;15471;51.166;4.470;2022-12-29T15:59:29;8.40;99.90
28189;DHT22;15471;51.166;4.470;2022-12-29T16:02:08;8.40;99.90
28189;DHT22;15471;51.166;4.470;2022-12-29T16:04:35;8.40;99.90
28189;DHT22;15471;51.166;4.470;2022-12-29T16:07:03;8.40;99.90
28189;DHT22;15471;51.166;4.470;2022-12-29T16:09:43;8.50;99.90
28189;DHT22;15471;51.166;4.470;2022-12-29T16:12:35;8.40;99.90
28189;DHT22;15471;51.166;4.470;2022-12-29T16:19:19;8.50;99.90
28189;DHT22;15471;51.166;4.470;2022-12-29T16:22:17;8.40;99.90
28189;DHT22;15471;51.166;4.470;2022-12-29T16:24:59;8.30;99.90
28189;DHT22;15471;51.166;4.470;2022-12-29T16:27:57;8.30;99.90
28189;DHT22;15471;51.166;4.470;2022-12-29T16:30:32;8.20;99.90
28189;DHT22;15471;51.166;4.470;2022-12-29T16:33:02;8.10;99.90
28189;DHT22;15471;51.166;4.470;2022-12-29T16:38:22;8.00;99.90
28189;DHT22;15471;51.166;4.470;2022-12-29T16:41:07;8.00;99.90
28189;DHT22;15471;51.166;4.470;2022-12-29T16:43:35;7.90;99.90
28189;DHT22;15471;51.166;4.470;2022-12-29T16:46:28;8.00;99.90
28189;DHT22;15471;51.166;4.470;2022-12-29T16:48:56;7.80;99.90
28189;DHT22;15471;51.166;4.470;2022-12-29T16:51:45;7.90;99.90
28189;DHT22;15471;51.166;4.470;2022-12-29T16:54:40;7.90;99.90
28189;DHT22;15471;51.166;4.470;2022-12-29T16:57:07;7.80;99.90
28189;DHT22;15471;51.166;4.470;2022-12-29T16:59:37;7.80;99.90
28189;DHT22;15471;51.166;4.470;2022-12-29T17:02:15;7.70;99.90
28189;DHT22;15471;51.166;4.470;2022-12-29T17:04:41;7.70;99.90
28189;DHT22;15471;51.166;4.470;2022-12-29T17:07:25;7.80;99.90
28189;DHT22;15471;51.166;4.470;2022-12-29T17:09:52;7.80;99.90
28189;DHT22;15471;51.166;4.470;2022-12-29T17:12:33;7.70;99.90
28189;DHT22;15471;51.166;4.470;2022-12-29T17:15:06;7.80;99.90
28189;DHT22;15471;51.166;4.470;2022-12-29T17:17:40;7.70;99.90
28189;DHT22;15471;51.166;4.470;2022-12-29T17:22:39;7.60;99.90
28189;DHT22;15471;51.166;4.470;2022-12-29T17:25:05;7.60;99.90
28189;DHT22;15471;51.166;4.470;2022-12-29T17:27:41;7.60;99.90
28189;DHT22;15471;51.166;4.470;2022-12-29T17:30:16;7.60;99.90
28189;DHT22;15471;51.166;4.470;2022-12-29T17:32:51;7.60;99.90
28189;DHT22;15471;51.166;4.470;2022-12-29T17:35:20;7.60;99.90
28189;DHT22;15471;51.166;4.470;2022-12-29T17:37:46;7.60;99.90
28189;DHT22;15471;51.166;4.470;2022-12-29T17:40:15;7.60;99.90
28189;DHT22;15471;51.166;4.470;2022-12-29T17:42:49;7.60;99.90
28189;DHT22;15471;51.166;4.470;2022-12-29T17:45:26;7.70;99.90
28189;DHT22;15471;51.166;4.470;2022-12-29T17:47:53;7.70;99.90
28189;DHT22;15471;51.166;4.470;2022-12-29T17:50:23;7.60;99.90
28189;DHT22;15471;51.166;4.470;2022-12-29T17:52:58;7.60;99.90
28189;DHT22;15471;51.166;4.470;2022-12-29T17:55:26;7.60;99.90
28189;DHT22;15471;51.166;4.470;2022-12-29T17:57:53;7.60;99.90
28189;DHT22;15471;51.166;4.470;2022-12-29T18:00:24;7.60;99.90
28189;DHT22;15471;51.166;4.470;2022-12-29T18:02:56;7.60;99.90
28189;DHT22;15471;51.166;4.470;2022-12-29T18:05:28;7.60;99.90
28189;DHT22;15471;51.166;4.470;2022-12-29T18:07:58;7.60;99.90
28189;DHT22;15471;51.166;4.470;2022-12-29T18:10:26;7.50;99.90
28189;DHT22;15471;51.166;4.470;2022-12-29T18:12:54;7.50;99.90
28189;DHT22;15471;51.166;4.470;2022-12-29T18:15:28;7.40;99.90
28189;DHT22;15471;51.166;4.470;2022-12-29T18:18:09;7.50;99.90
28189;DHT22;15471;51.166;4.470;2022-12-29T18:20:35;7.40;99.90
28189;DHT22;15471;51.166;4.470;2022-12-29T18:23:01;7.50;99.90
28189;DHT22;15471;51.166;4.470;2022-12-29T18:27:58;7.60;99.90
28189;DHT22;15471;51.166;4.470;2022-12-29T18:30:24;7.60;99.90
28189;DHT22;15471;51.166;4.470;2022-12-29T18:32:50;7.60;99.90
28189;DHT22;15471;51.166;4.470;2022-12-29T18:35:37;7.60;99.90